sensor_id;sensor_type;location;lat;lon;timestamp;pressure;altitude;pressure_sealevel;temperature;humidity
65614;BME280;52283;49.292;10.572;2023-09-19T00:02:25;96064.59;;;16.88;100.00
65614;BME280;52283;49.292;10.572;2023-09-19T00:04:52;96067.56;;;16.82;100.00
65614;BME280;52283;49.292;10.572;2023-09-19T00:07:19;96062.63;;;16.75;100.00
65614;BME280;52283;49.292;10.572;2023-09-19T00:09:46;96067.13;;;16.70;100.00
65614;BME280;52283;49.292;10.572;2023-09-19T00:12:13;96068.81;;;16.73;100.00
65614;BME280;52283;49.292;10.572;2023-09-19T00:14:40;96075.94;;;16.67;100.00
65614;BME280;52283;49.292;10.572;2023-09-19T00:17:08;96076.88;;;16.69;100.00
65614;BME280;52283;49.292;10.572;2023-09-19T00:19:35;96084.84;;;16.58;100.00
65614;BME280;52283;49.292;10.572;2023-09-19T00:22:03;96088.28;;;16.64;100.00
65614;BME280;52283;49.292;10.572;2023-09-19T00:24:29;96091.88;;;16.43;100.00
65614;BME280;52283;49.292;10.572;2023-09-19T00:26:56;96087.56;;;16.42;100.00
65614;BME280;52283;49.292;10.572;2023-09-19T00:29:25;96082.53;;;16.49;100.00
65614;BME280;52283;49.292;10.572;2023-09-19T00:31:54;96081.50;;;16.38;100.00
65614;BME280;52283;49.292;10.572;2023-09-19T00:34:22;96082.47;;;16.41;100.00
65614;BME280;52283;49.292;10.572;2023-09-19T00:36:50;96096.16;;;16.37;100.00
65614;BME280;52283;49.292;10.572;2023-09-19T00:39:18;96098.03;;;16.34;100.00
65614;BME280;52283;49.292;10.572;2023-09-19T00:41:45;96099.72;;;16.37;100.00
65614;BME280;52283;49.292;10.572;2023-09-19T00:44:12;96094.09;;;16.37;100.00
65614;BME280;52283;49.292;10.572;2023-09-19T00:46:39;96106.22;;;16.45;100.00
65614;BME280;52283;49.292;10.572;2023-09-19T00:49:07;96098.28;;;16.44;100.00
65614;BME280;52283;49.292;10.572;2023-09-19T00:51:36;96099.03;;;16.44;100.00
65614;BME280;52283;49.292;10.572;2023-09-19T00:54:03;96103.59;;;16.48;100.00
65614;BME280;52283;49.292;10.572;2023-09-19T00:56:30;96108.41;;;16.39;100.00
65614;BME280;52283;49.292;10.572;2023-09-19T00:58:57;96095.59;;;16.38;100.00
65614;BME280;52283;49.292;10.572;2023-09-19T01:01:23;96091.13;;;16.43;100.00
65614;BME280;52283;49.292;10.572;2023-09-19T01:03:50;96089.97;;;16.38;100.00
65614;BME280;52283;49.292;10.572;2023-09-19T01:06:17;96094.50;;;16.41;100.00
65614;BME280;52283;49.292;10.572;2023-09-19T01:08:45;96087.81;;;16.52;100.00
65614;BME280;52283;49.292;10.572;2023-09-19T01:11:14;96086.31;;;16.51;100.00
65614;BME280;52283;49.292;10.572;2023-09-19T01:13:50;96085.75;;;16.53;100.00
65614;BME280;52283;49.292;10.572;2023-09-19T01:16:27;96100.78;;;16.48;100.00
65614;BME280;52283;49.292;10.572;2023-09-19T01:19:07;96098.06;;;16.42;100.00
65614;BME280;52283;49.292;10.572;2023-09-19T01:21:44;96097.13;;;16.39;100.00
65614;BME280;52283;49.292;10.572;2023-09-19T01:24:42;96091.75;;;16.49;100.00
65614;BME280;52283;49.292;10.572;2023-09-19T01:27:36;96100.97;;;16.50;100.00
65614;BME280;52283;49.292;10.572;2023-09-19T01:30:10;96093.47;;;16.52;100.00
65614;BME280;52283;49.292;10.572;2023-09-19T01:32:39;96096.75;;;16.43;100.00
65614;BME280;52283;49.292;10.572;2023-09-19T01:35:06;96096.09;;;16.50;100.00
65614;BME280;52283;49.292;10.572;2023-09-19T01:37:38;96099.09;;;16.52;100.00
65614;BME280;52283;49.292;10.572;2023-09-19T01:40:07;96090.25;;;16.48;100.00
65614;BME280;52283;49.292;10.572;2023-09-19T01:42:45;96102.63;;;16.45;100.00
65614;BME280;52283;49.292;10.572;2023-09-19T01:45:24;96103.16;;;16.43;100.00
65614;BME280;52283;49.292;10.572;2023-09-19T01:47:55;96101.09;;;16.44;100.00
65614;BME280;52283;49.292;10.572;2023-09-19T01:50:30;96108.81;;;16.43;100.00
65614;BME280;52283;49.292;10.572;2023-09-19T01:52:59;96106.22;;;16.45;100.00
65614;BME280;52283;49.292;10.572;2023-09-19T01:55:30;96105.97;;;16.43;100.00
65614;BME280;52283;49.292;10.572;2023-09-19T01:58:01;96109.66;;;16.31;100.00
65614;BME280;52283;49.292;10.572;2023-09-19T02:00:34;96111.84;;;16.45;100.00
65614;BME280;52283;49.292;10.572;2023-09-19T02:03:03;96115.69;;;16.35;100.00
65614;BME280;52283;49.292;10.572;2023-09-19T02:05:29;96122.44;;;16.32;100.00
65614;BME280;52283;49.292;10.572;2023-09-19T02:07:56;96125.81;;;16.30;100.00
65614;BME280;52283;49.292;10.572;2023-09-19T02:10:24;96134.13;;;16.36;100.00
65614;BME280;52283;49.292;10.572;2023-09-19T02:12:50;96132.97;;;16.31;100.00
65614;BME280;52283;49.292;10.572;2023-09-19T02:15:17;96129.94;;;16.29;100.00
65614;BME280;52283;49.292;10.572;2023-09-19T02:17:45;96136.13;;;16.28;100.00
65614;BME280;52283;49.292;10.572;2023-09-19T02:20:12;96139.16;;;16.30;100.00
65614;BME280;52283;49.292;10.572;2023-09-19T02:22:40;96135.03;;;16.31;100.00
65614;BME280;52283;49.292;10.572;2023-09-19T02:25:07;96141.13;;;16.22;100.00
65614;BME280;52283;49.292;10.572;2023-09-19T02:27:34;96138.66;;;16.18;100.00
65614;BME280;52283;49.292;10.572;2023-09-19T02:30:01;96138.00;;;16.25;100.00
65614;BME280;52283;49.292;10.572;2023-09-19T02:32:29;96145.66;;;16.04;100.00
65614;BME280;52283;49.292;10.572;2023-09-19T02:34:58;96146.09;;;16.08;100.00
65614;BME280;52283;49.292;10.572;2023-09-19T02:37:24;96145.31;;;16.07;100.00
65614;BME280;52283;49.292;10.572;2023-09-19T02:39:51;96144.13;;;16.03;100.00
65614;BME280;52283;49.292;10.572;2023-09-19T02:42:18;96151.63;;;16.00;100.00
65614;BME280;52283;49.292;10.572;2023-09-19T02:44:44;96145.22;;;16.00;100.00
65614;BME280;52283;49.292;10.572;2023-09-19T02:47:12;96145.97;;;16.00;100.00
65614;BME280;52283;49.292;10.572;2023-09-19T02:49:40;96145.50;;;15.89;100.00
65614;BME280;52283;49.292;10.572;2023-09-19T02:52:09;96164.00;;;15.97;100.00
65614;BME280;52283;49.292;10.572;2023-09-19T02:54:36;96153.19;;;15.88;100.00
65614;BME280;52283;49.292;10.572;2023-09-19T02:57:03;96157.31;;;15.87;100.00
65614;BME280;52283;49.292;10.572;2023-09-19T02:59:32;96156.78;;;15.89;100.00
65614;BME280;52283;49.292;10.572;2023-09-19T03:01:58;96157.97;;;15.80;100.00
65614;BME280;52283;49.292;10.572;2023-09-19T03:04:26;96166.88;;;15.84;100.00
65614;BME280;52283;49.292;10.572;2023-09-19T03:06:53;96161.53;;;15.80;100.00
65614;BME280;52283;49.292;10.572;2023-09-19T03:09:25;96166.56;;;15.74;100.00
65614;BME280;52283;49.292;10.572;2023-09-19T03:11:51;96162.63;;;15.77;100.00
65614;BME280;52283;49.292;10.572;2023-09-19T03:14:19;96166.00;;;15.76;100.00
65614;BME280;52283;49.292;10.572;2023-09-19T03:16:46;96169.72;;;15.71;100.00
65614;BME280;52283;49.292;10.572;2023-09-19T03:19:12;96164.50;;;15.75;100.00
65614;BME280;52283;49.292;10.572;2023-09-19T03:21:40;96169.44;;;15.82;100.00
65614;BME280;52283;49.292;10.572;2023-09-19T03:24:07;96182.53;;;15.93;100.00
65614;BME280;52283;49.292;10.572;2023-09-19T03:26:35;96184.59;;;15.92;100.00
65614;BME280;52283;49.292;10.572;2023-09-19T03:29:03;96174.22;;;15.87;100.00
65614;BME280;52283;49.292;10.572;2023-09-19T03:31:33;96177.59;;;15.85;100.00
65614;BME280;52283;49.292;10.572;2023-09-19T03:34:02;96175.56;;;15.73;100.00
65614;BME280;52283;49.292;10.572;2023-09-19T03:36:29;96179.66;;;15.72;100.00
65614;BME280;52283;49.292;10.572;2023-09-19T03:38:56;96177.69;;;15.80;100.00
65614;BME280;52283;49.292;10.572;2023-09-19T03:41:22;96185.19;;;15.77;100.00
65614;BME280;52283;49.292;10.572;2023-09-19T03:43:50;96175.09;;;15.82;100.00
65614;BME280;52283;49.292;10.572;2023-09-19T03:46:17;96189.41;;;15.84;100.00
65614;BME280;52283;49.292;10.572;2023-09-19T03:48:43;96186.81;;;15.86;100.00
65614;BME280;52283;49.292;10.572;2023-09-19T03:51:10;96193.75;;;15.85;100.00
65614;BME280;52283;49.292;10.572;2023-09-19T03:53:36;96187.03;;;15.75;100.00
65614;BME280;52283;49.292;10.572;2023-09-19T03:56:03;96176.09;;;15.71;100.00
65614;BME280;52283;49.292;10.572;2023-09-19T03:58:30;96178.44;;;15.80;100.00
65614;BME280;52283;49.292;10.572;2023-09-19T04:00:58;96187.38;;;15.71;100.00
65614;BME280;52283;49.292;10.572;2023-09-19T04:03:24;96183.66;;;15.76;100.00
65614;BME280;52283;49.292;10.572;2023-09-19T04:05:59;96178.56;;;15.88;100.00
65614;BME280;52283;49.292;10.572;2023-09-19T04:08:26;96178.56;;;15.88;100.00
65614;BME280;52283;49.292;10.572;2023-09-19T04:10:52;96179.31;;;15.89;100.00
65614;BME280;52283;49.292;10.572;2023-09-19T04:13:19;96180.28;;;15.91;100.00
65614;BME280;52283;49.292;10.572;2023-09-19T04:15:45;96179.72;;;15.93;100.00
65614;BME280;52283;49.292;10.572;2023-09-19T04:18:13;96180.47;;;15.93;100.00
65614;BME280;52283;49.292;10.572;2023-09-19T04:20:39;96192.16;;;15.97;100.00
65614;BME280;52283;49.292;10.572;2023-09-19T04:23:06;96190.66;;;15.96;100.00
65614;BME280;52283;49.292;10.572;2023-09-19T04:25:33;96187.63;;;15.94;100.00
65614;BME280;52283;49.292;10.572;2023-09-19T04:28:00;96184.81;;;15.94;100.00
65614;BME280;52283;49.292;10.572;2023-09-19T04:30:26;96191.00;;;15.93;100.00
65614;BME280;52283;49.292;10.572;2023-09-19T04:32:52;96207.91;;;15.93;100.00
65614;BME280;52283;49.292;10.572;2023-09-19T04:35:20;96210.50;;;15.91;100.00
65614;BME280;52283;49.292;10.572;2023-09-19T04:37:47;96211.63;;;15.88;100.00
65614;BME280;52283;49.292;10.572;2023-09-19T04:40:14;96202.06;;;15.91;100.00
65614;BME280;52283;49.292;10.572;2023-09-19T04:42:42;96201.81;;;16.02;100.00
65614;BME280;52283;49.292;10.572;2023-09-19T04:45:10;96204.41;;;16.00;100.00
65614;BME280;52283;49.292;10.572;2023-09-19T04:47:36;96216.44;;;16.00;100.00
65614;BME280;52283;49.292;10.572;2023-09-19T04:50:06;96210.81;;;16.00;100.00
65614;BME280;52283;49.292;10.572;2023-09-19T04:52:34;96214.06;;;16.04;100.00
65614;BME280;52283;49.292;10.572;2023-09-19T04:55:01;96220.47;;;16.05;100.00
65614;BME280;52283;49.292;10.572;2023-09-19T04:57:28;96223.81;;;16.03;100.00
65614;BME280;52283;49.292;10.572;2023-09-19T04:59:56;96230.22;;;16.04;100.00
65614;BME280;52283;49.292;10.572;2023-09-19T05:02:23;96229.03;;;15.99;100.00
65614;BME280;52283;49.292;10.572;2023-09-19T05:04:49;96228.47;;;16.01;100.00
65614;BME280;52283;49.292;10.572;2023-09-19T05:07:16;96232.81;;;16.02;100.00
65614;BME280;52283;49.292;10.572;2023-09-19T05:09:44;96232.50;;;16.05;100.00
65614;BME280;52283;49.292;10.572;2023-09-19T05:12:10;96237.59;;;15.94;100.00
65614;BME280;52283;49.292;10.572;2023-09-19T05:14:37;96233.03;;;16.04;100.00
65614;BME280;52283;49.292;10.572;2023-09-19T05:17:05;96242.66;;;16.08;100.00
65614;BME280;52283;49.292;10.572;2023-09-19T05:19:33;96243.44;;;16.09;100.00
65614;BME280;52283;49.292;10.572;2023-09-19T05:22:00;96242.81;;;15.90;100.00
65614;BME280;52283;49.292;10.572;2023-09-19T05:24:26;96252.31;;;16.00;100.00
65614;BME280;52283;49.292;10.572;2023-09-19T05:26:54;96247.69;;;15.89;100.00
65614;BME280;52283;49.292;10.572;2023-09-19T05:29:22;96249.22;;;15.90;100.00
65614;BME280;52283;49.292;10.572;2023-09-19T05:31:48;96253.00;;;15.93;100.00
65614;BME280;52283;49.292;10.572;2023-09-19T05:34:16;96253.56;;;15.78;100.00
65614;BME280;52283;49.292;10.572;2023-09-19T05:36:42;96260.47;;;15.77;100.00
65614;BME280;52283;49.292;10.572;2023-09-19T05:39:09;96266.44;;;15.73;100.00
65614;BME280;52283;49.292;10.572;2023-09-19T05:41:37;96268.84;;;15.69;100.00
65614;BME280;52283;49.292;10.572;2023-09-19T05:44:06;96269.28;;;15.73;100.00
65614;BME280;52283;49.292;10.572;2023-09-19T05:46:33;96267.00;;;15.72;100.00
65614;BME280;52283;49.292;10.572;2023-09-19T05:49:00;96274.25;;;15.67;100.00
65614;BME280;52283;49.292;10.572;2023-09-19T05:51:26;96275.88;;;15.76;100.00
65614;BME280;52283;49.292;10.572;2023-09-19T05:53:53;96272.97;;;15.68;100.00
65614;BME280;52283;49.292;10.572;2023-09-19T05:56:20;96284.88;;;15.61;100.00
65614;BME280;52283;49.292;10.572;2023-09-19T05:58:46;96279.13;;;15.67;100.00
65614;BME280;52283;49.292;10.572;2023-09-19T06:01:14;96289.31;;;15.70;100.00
65614;BME280;52283;49.292;10.572;2023-09-19T06:03:40;96301.78;;;15.74;100.00
65614;BME280;52283;49.292;10.572;2023-09-19T06:06:07;96296.03;;;15.80;100.00
65614;BME280;52283;49.292;10.572;2023-09-19T06:08:34;96305.56;;;15.77;100.00
65614;BME280;52283;49.292;10.572;2023-09-19T06:11:01;96311.75;;;15.75;100.00
65614;BME280;52283;49.292;10.572;2023-09-19T06:13:28;96312.50;;;15.76;100.00
65614;BME280;52283;49.292;10.572;2023-09-19T06:15:54;96317.72;;;15.85;100.00
65614;BME280;52283;49.292;10.572;2023-09-19T06:18:22;96323.00;;;15.75;100.00
65614;BME280;52283;49.292;10.572;2023-09-19T06:20:51;96331.78;;;15.72;100.00
65614;BME280;52283;49.292;10.572;2023-09-19T06:23:20;96327.78;;;15.80;100.00
65614;BME280;52283;49.292;10.572;2023-09-19T06:25:47;96331.03;;;15.84;100.00
65614;BME280;52283;49.292;10.572;2023-09-19T06:28:14;96327.47;;;15.84;100.00
65614;BME280;52283;49.292;10.572;2023-09-19T06:30:43;96335.13;;;15.97;100.00
65614;BME280;52283;49.292;10.572;2023-09-19T06:33:10;96325.72;;;16.07;100.00
65614;BME280;52283;49.292;10.572;2023-09-19T06:35:39;96331.13;;;16.05;100.00
65614;BME280;52283;49.292;10.572;2023-09-19T06:38:07;96333.75;;;15.90;100.00
65614;BME280;52283;49.292;10.572;2023-09-19T06:40:34;96340.34;;;15.93;100.00
65614;BME280;52283;49.292;10.572;2023-09-19T06:43:00;96344.03;;;15.88;100.00
65614;BME280;52283;49.292;10.572;2023-09-19T06:45:29;96333.28;;;15.99;100.00
65614;BME280;52283;49.292;10.572;2023-09-19T06:47:57;96340.19;;;16.38;100.00
65614;BME280;52283;49.292;10.572;2023-09-19T06:50:25;96338.78;;;16.79;100.00
65614;BME280;52283;49.292;10.572;2023-09-19T06:52:54;96337.81;;;17.10;100.00
65614;BME280;52283;49.292;10.572;2023-09-19T06:55:22;96342.50;;;17.08;100.00
65614;BME280;52283;49.292;10.572;2023-09-19T06:57:50;96343.09;;;17.34;100.00
65614;BME280;52283;49.292;10.572;2023-09-19T07:00:19;96352.19;;;16.99;100.00
65614;BME280;52283;49.292;10.572;2023-09-19T07:02:54;96343.50;;;16.97;100.00
65614;BME280;52283;49.292;10.572;2023-09-19T07:05:21;96354.75;;;16.76;100.00
65614;BME280;52283;49.292;10.572;2023-09-19T07:07:47;96355.09;;;16.59;100.00
65614;BME280;52283;49.292;10.572;2023-09-19T07:10:16;96365.28;;;16.62;100.00
65614;BME280;52283;49.292;10.572;2023-09-19T07:12:43;96358.63;;;16.86;100.00
65614;BME280;52283;49.292;10.572;2023-09-19T07:15:09;96360.72;;;17.06;100.00
65614;BME280;52283;49.292;10.572;2023-09-19T07:17:36;96355.41;;;17.24;100.00
65614;BME280;52283;49.292;10.572;2023-09-19T07:20:03;96358.66;;;17.07;100.00
65614;BME280;52283;49.292;10.572;2023-09-19T07:22:33;96357.88;;;16.86;100.00
65614;BME280;52283;49.292;10.572;2023-09-19T07:24:59;96355.53;;;16.63;100.00
65614;BME280;52283;49.292;10.572;2023-09-19T07:27:27;96364.13;;;16.58;100.00
65614;BME280;52283;49.292;10.572;2023-09-19T07:29:53;96359.38;;;16.53;100.00
65614;BME280;52283;49.292;10.572;2023-09-19T07:32:20;96368.03;;;17.23;100.00
65614;BME280;52283;49.292;10.572;2023-09-19T07:34:47;96362.88;;;17.34;100.00
65614;BME280;52283;49.292;10.572;2023-09-19T07:37:13;96357.19;;;18.05;100.00
65614;BME280;52283;49.292;10.572;2023-09-19T07:39:41;96355.56;;;16.97;100.00
65614;BME280;52283;49.292;10.572;2023-09-19T07:42:08;96369.66;;;16.97;100.00
65614;BME280;52283;49.292;10.572;2023-09-19T07:44:38;96368.66;;;17.29;100.00
65614;BME280;52283;49.292;10.572;2023-09-19T07:47:04;96379.59;;;17.12;100.00
65614;BME280;52283;49.292;10.572;2023-09-19T07:49:31;96376.09;;;17.19;100.00
65614;BME280;52283;49.292;10.572;2023-09-19T07:51:57;96371.41;;;17.21;100.00
65614;BME280;52283;49.292;10.572;2023-09-19T07:54:24;96386.47;;;17.03;100.00
65614;BME280;52283;49.292;10.572;2023-09-19T07:56:50;96388.91;;;16.86;100.00
65614;BME280;52283;49.292;10.572;2023-09-19T07:59:17;96388.16;;;16.85;100.00
65614;BME280;52283;49.292;10.572;2023-09-19T08:01:44;96395.75;;;16.90;100.00
65614;BME280;52283;49.292;10.572;2023-09-19T08:04:12;96395.16;;;16.71;100.00
65614;BME280;52283;49.292;10.572;2023-09-19T08:06:39;96399.56;;;16.80;100.00
65614;BME280;52283;49.292;10.572;2023-09-19T08:09:05;96391.44;;;16.76;100.00
65614;BME280;52283;49.292;10.572;2023-09-19T08:11:35;96408.38;;;16.63;100.00
65614;BME280;52283;49.292;10.572;2023-09-19T08:14:02;96410.72;;;16.85;100.00
65614;BME280;52283;49.292;10.572;2023-09-19T08:16:31;96408.63;;;16.99;100.00
65614;BME280;52283;49.292;10.572;2023-09-19T08:18:58;96407.16;;;16.85;100.00
65614;BME280;52283;49.292;10.572;2023-09-19T08:21:25;96410.44;;;17.10;100.00
65614;BME280;52283;49.292;10.572;2023-09-19T08:23:54;96413.53;;;16.85;100.00
65614;BME280;52283;49.292;10.572;2023-09-19T08:26:22;96412.78;;;16.85;100.00
65614;BME280;52283;49.292;10.572;2023-09-19T08:28:49;96416.13;;;16.96;100.00
65614;BME280;52283;49.292;10.572;2023-09-19T08:31:16;96437.94;;;17.09;100.00
65614;BME280;52283;49.292;10.572;2023-09-19T08:33:43;96416.16;;;16.83;100.00
65614;BME280;52283;49.292;10.572;2023-09-19T08:36:12;96421.19;;;17.11;100.00
65614;BME280;52283;49.292;10.572;2023-09-19T08:38:39;96426.19;;;17.39;100.00
65614;BME280;52283;49.292;10.572;2023-09-19T08:41:07;96428.94;;;17.31;100.00
65614;BME280;52283;49.292;10.572;2023-09-19T08:43:34;96416.34;;;17.74;100.00
65614;BME280;52283;49.292;10.572;2023-09-19T08:46:09;96416.75;;;17.78;100.00
65614;BME280;52283;49.292;10.572;2023-09-19T08:48:39;96427.91;;;17.63;100.00
65614;BME280;52283;49.292;10.572;2023-09-19T08:51:16;96439.72;;;17.75;100.00
65614;BME280;52283;49.292;10.572;2023-09-19T08:53:50;96442.50;;;17.33;100.00
65614;BME280;52283;49.292;10.572;2023-09-19T08:56:18;96452.03;;;17.09;100.00
65614;BME280;52283;49.292;10.572;2023-09-19T08:58:47;96436.31;;;17.34;100.00
65614;BME280;52283;49.292;10.572;2023-09-19T09:01:18;96453.25;;;17.34;100.00
65614;BME280;52283;49.292;10.572;2023-09-19T09:03:50;96449.56;;;17.26;100.00
65614;BME280;52283;49.292;10.572;2023-09-19T09:06:19;96453.50;;;17.23;100.00
65614;BME280;52283;49.292;10.572;2023-09-19T09:08:46;96453.03;;;17.32;100.00
65614;BME280;52283;49.292;10.572;2023-09-19T09:11:13;96445.28;;;17.88;100.00
65614;BME280;52283;49.292;10.572;2023-09-19T09:13:42;96443.13;;;17.39;100.00
65614;BME280;52283;49.292;10.572;2023-09-19T09:16:10;96446.97;;;17.28;100.00
65614;BME280;52283;49.292;10.572;2023-09-19T09:18:38;96455.22;;;17.26;100.00
65614;BME280;52283;49.292;10.572;2023-09-19T09:21:05;96455.19;;;17.40;100.00
65614;BME280;52283;49.292;10.572;2023-09-19T09:23:33;96455.91;;;17.19;100.00
65614;BME280;52283;49.292;10.572;2023-09-19T09:26:00;96461.50;;;17.32;100.00
65614;BME280;52283;49.292;10.572;2023-09-19T09:28:29;96463.69;;;17.26;100.00
65614;BME280;52283;49.292;10.572;2023-09-19T09:30:57;96453.03;;;17.32;100.00
65614;BME280;52283;49.292;10.572;2023-09-19T09:33:24;96446.44;;;17.30;100.00
65614;BME280;52283;49.292;10.572;2023-09-19T09:35:52;96459.34;;;17.25;100.00
65614;BME280;52283;49.292;10.572;2023-09-19T09:38:22;96459.84;;;17.16;100.00
65614;BME280;52283;49.292;10.572;2023-09-19T09:40:53;96459.97;;;17.11;100.00
65614;BME280;52283;49.292;10.572;2023-09-19T09:43:26;96462.34;;;17.06;100.00
65614;BME280;52283;49.292;10.572;2023-09-19T09:46:12;96451.22;;;17.22;100.00
65614;BME280;52283;49.292;10.572;2023-09-19T09:48:59;96452.09;;;17.51;100.00
65614;BME280;52283;49.292;10.572;2023-09-19T09:51:48;96434.25;;;17.77;100.00
65614;BME280;52283;49.292;10.572;2023-09-19T09:54:25;96455.09;;;17.32;100.00
65614;BME280;52283;49.292;10.572;2023-09-19T09:56:55;96432.97;;;17.23;100.00
65614;BME280;52283;49.292;10.572;2023-09-19T09:59:45;96420.19;;;17.84;100.00
65614;BME280;52283;49.292;10.572;2023-09-19T10:02:13;96426.56;;;18.34;100.00
65614;BME280;52283;49.292;10.572;2023-09-19T10:04:40;96418.47;;;18.10;100.00
65614;BME280;52283;49.292;10.572;2023-09-19T10:07:27;96418.16;;;18.85;99.91
65614;BME280;52283;49.292;10.572;2023-09-19T10:09:57;96410.16;;;18.69;97.87
65614;BME280;52283;49.292;10.572;2023-09-19T10:12:31;96422.69;;;18.81;98.18
65614;BME280;52283;49.292;10.572;2023-09-19T10:15:00;96435.84;;;18.42;98.78
65614;BME280;52283;49.292;10.572;2023-09-19T10:17:29;96426.72;;;18.00;97.35
65614;BME280;52283;49.292;10.572;2023-09-19T10:19:59;96455.56;;;17.78;99.93
65614;BME280;52283;49.292;10.572;2023-09-19T10:22:35;96431.97;;;17.96;98.52
65614;BME280;52283;49.292;10.572;2023-09-19T10:25:04;96445.06;;;17.86;98.22
65614;BME280;52283;49.292;10.572;2023-09-19T10:27:35;96445.66;;;18.41;96.41
65614;BME280;52283;49.292;10.572;2023-09-19T10:30:05;96432.34;;;18.93;94.49
65614;BME280;52283;49.292;10.572;2023-09-19T10:32:35;96437.09;;;18.62;95.01
65614;BME280;52283;49.292;10.572;2023-09-19T10:35:02;96433.25;;;18.88;92.68
65614;BME280;52283;49.292;10.572;2023-09-19T10:37:32;96431.88;;;18.74;92.71
65614;BME280;52283;49.292;10.572;2023-09-19T10:40:00;96433.19;;;18.73;93.43
65614;BME280;52283;49.292;10.572;2023-09-19T10:42:27;96436.59;;;18.71;93.13
65614;BME280;52283;49.292;10.572;2023-09-19T10:44:57;96429.59;;;19.16;90.38
65614;BME280;52283;49.292;10.572;2023-09-19T10:47:26;96438.53;;;18.84;89.64
65614;BME280;52283;49.292;10.572;2023-09-19T10:49:53;96437.47;;;18.58;91.62
65614;BME280;52283;49.292;10.572;2023-09-19T10:52:23;96411.75;;;18.85;89.37
65614;BME280;52283;49.292;10.572;2023-09-19T10:54:52;96449.06;;;18.47;91.64
65614;BME280;52283;49.292;10.572;2023-09-19T10:57:23;96423.56;;;19.27;87.68
65614;BME280;52283;49.292;10.572;2023-09-19T11:00:05;96418.47;;;19.33;84.74
65614;BME280;52283;49.292;10.572;2023-09-19T11:03:18;96406.22;;;19.38;82.06
65614;BME280;52283;49.292;10.572;2023-09-19T11:06:02;96411.34;;;20.24;81.20
65614;BME280;52283;49.292;10.572;2023-09-19T11:08:30;96406.53;;;20.64;80.11
65614;BME280;52283;49.292;10.572;2023-09-19T11:10:59;96408.91;;;19.90;80.66
65614;BME280;52283;49.292;10.572;2023-09-19T11:13:29;96408.25;;;19.23;84.09
65614;BME280;52283;49.292;10.572;2023-09-19T11:16:04;96415.06;;;19.19;83.61
65614;BME280;52283;49.292;10.572;2023-09-19T11:18:56;96427.19;;;19.43;82.89
65614;BME280;52283;49.292;10.572;2023-09-19T11:21:51;96422.69;;;18.81;82.09
65614;BME280;52283;49.292;10.572;2023-09-19T11:24:32;96420.72;;;19.27;82.85
65614;BME280;52283;49.292;10.572;2023-09-19T11:27:12;96416.09;;;18.94;84.91
65614;BME280;52283;49.292;10.572;2023-09-19T11:29:40;96410.56;;;19.47;82.77
65614;BME280;52283;49.292;10.572;2023-09-19T11:32:08;96412.22;;;19.19;85.11
65614;BME280;52283;49.292;10.572;2023-09-19T11:34:57;96418.94;;;19.68;85.83
65614;BME280;52283;49.292;10.572;2023-09-19T11:38:00;96409.84;;;19.92;84.86
65614;BME280;52283;49.292;10.572;2023-09-19T11:40:36;96404.09;;;19.24;85.69
65614;BME280;52283;49.292;10.572;2023-09-19T11:43:33;96415.44;;;19.16;84.41
65614;BME280;52283;49.292;10.572;2023-09-19T11:46:07;96427.38;;;19.53;86.14
65614;BME280;52283;49.292;10.572;2023-09-19T11:48:38;96405.16;;;19.79;84.30
65614;BME280;52283;49.292;10.572;2023-09-19T11:51:11;96412.84;;;19.48;85.40
65614;BME280;52283;49.292;10.572;2023-09-19T11:53:41;96406.66;;;19.81;83.70
65614;BME280;52283;49.292;10.572;2023-09-19T11:56:10;96402.81;;;19.47;85.73
65614;BME280;52283;49.292;10.572;2023-09-19T11:58:37;96401.13;;;20.21;83.56
65614;BME280;52283;49.292;10.572;2023-09-19T12:01:05;96402.47;;;20.12;81.99
65614;BME280;52283;49.292;10.572;2023-09-19T12:03:42;96384.06;;;20.36;81.20
65614;BME280;52283;49.292;10.572;2023-09-19T12:06:11;96391.84;;;20.28;79.57
65614;BME280;52283;49.292;10.572;2023-09-19T12:08:41;96385.63;;;20.22;80.21
65614;BME280;52283;49.292;10.572;2023-09-19T12:11:13;96396.22;;;19.45;84.45
65614;BME280;52283;49.292;10.572;2023-09-19T12:13:41;96401.16;;;19.67;85.11
65614;BME280;52283;49.292;10.572;2023-09-19T12:16:12;96399.28;;;20.00;85.66
65614;BME280;52283;49.292;10.572;2023-09-19T12:18:41;96399.94;;;20.39;83.11
65614;BME280;52283;49.292;10.572;2023-09-19T12:21:24;96393.38;;;19.45;83.88
65614;BME280;52283;49.292;10.572;2023-09-19T12:24:06;96396.63;;;19.79;83.43
65614;BME280;52283;49.292;10.572;2023-09-19T12:26:40;96385.22;;;20.18;82.04
65614;BME280;52283;49.292;10.572;2023-09-19T12:29:15;96380.16;;;19.93;81.58
65614;BME280;52283;49.292;10.572;2023-09-19T12:31:51;96389.84;;;19.60;82.34
65614;BME280;52283;49.292;10.572;2023-09-19T12:34:22;96387.53;;;19.89;82.54
65614;BME280;52283;49.292;10.572;2023-09-19T12:37:03;96391.00;;;20.58;81.61
65614;BME280;52283;49.292;10.572;2023-09-19T12:39:30;96380.72;;;20.07;79.77
65614;BME280;52283;49.292;10.572;2023-09-19T12:41:57;96371.19;;;20.50;75.50
65614;BME280;52283;49.292;10.572;2023-09-19T12:44:24;96373.34;;;19.96;80.55
65614;BME280;52283;49.292;10.572;2023-09-19T12:46:50;96367.72;;;20.67;76.91
65614;BME280;52283;49.292;10.572;2023-09-19T12:49:21;96370.13;;;20.07;78.04
65614;BME280;52283;49.292;10.572;2023-09-19T12:51:48;96370.25;;;20.48;80.11
65614;BME280;52283;49.292;10.572;2023-09-19T12:54:16;96370.47;;;20.27;78.07
65614;BME280;52283;49.292;10.572;2023-09-19T12:56:43;96379.59;;;19.95;81.70